Time;durP1;ratioP1;P1;durP2;ratioP2;P2;SDS_P1;SDS_P2;PMS_P1;PMS_P2;Temp;Humidity;BMP_temperature;BMP_pressure;BME280_temperature;BME280_humidity;BME280_pressure;Samples;Min_cycle;Max_cycle;Signal;HPM_P1;HPM_P2
2023/06/12 00:02:13;;;;;;;7.55;5.85;;;;;;;23.68;38.63;101411.00;5093406;28;20036;-65
2023/06/12 00:04:39;;;;;;;9.65;5.95;;;;;;;23.68;38.23;101409.22;5093204;28;20130;-65
2023/06/12 00:07:05;;;;;;;7.72;5.90;;;;;;;23.49;38.85;101403.53;5092861;28;20111;-65
2023/06/12 00:09:30;;;;;;;10.90;6.25;;;;;;;23.53;38.89;101403.44;5092881;28;20036;-65
2023/06/12 00:11:55;;;;;;;10.88;6.45;;;;;;;23.43;39.30;101392.97;5092886;28;20028;-65
2023/06/12 00:14:21;;;;;;;8.05;5.72;;;;;;;23.48;39.00;101403.59;5093002;28;20016;-65
2023/06/12 00:16:48;;;;;;;10.20;5.70;;;;;;;23.52;39.51;101405.25;5093048;28;20077;-65
2023/06/12 00:19:13;;;;;;;12.15;5.95;;;;;;;23.37;38.74;101406.63;5092953;28;20132;-65
2023/06/12 00:21:39;;;;;;;13.30;6.00;;;;;;;23.44;38.84;101402.81;5092870;28;20135;-65
2023/06/12 00:24:08;;;;;;;9.73;5.88;;;;;;;23.44;38.77;101402.81;5093074;28;20062;-65
2023/06/12 00:26:34;;;;;;;10.02;5.70;;;;;;;23.49;38.65;101402.66;5093067;28;20375;-65
2023/06/12 00:29:00;;;;;;;9.88;6.32;;;;;;;23.44;38.59;101405.50;5092747;28;20047;-65
2023/06/12 00:31:25;;;;;;;9.45;6.00;;;;;;;23.51;39.15;101411.59;5092640;28;20052;-65
2023/06/12 00:33:50;;;;;;;9.50;5.72;;;;;;;23.46;38.08;101405.44;5092821;28;20035;-65
2023/06/12 00:36:16;;;;;;;11.88;5.90;;;;;;;23.44;39.04;101402.81;5092814;28;20393;-65
2023/06/12 00:38:41;;;;;;;11.27;5.85;;;;;;;23.23;38.96;101401.69;5092415;28;20150;-65
2023/06/12 00:41:07;;;;;;;8.45;5.60;;;;;;;23.28;38.58;101403.38;5093576;28;20119;-65
2023/06/12 00:43:33;;;;;;;10.55;6.30;;;;;;;23.12;39.22;101402.97;5096662;28;20032;-65
2023/06/12 00:45:59;;;;;;;7.50;5.50;;;;;;;23.19;38.86;101396.47;5096587;28;20145;-65
2023/06/12 00:48:25;;;;;;;12.40;5.55;;;;;;;23.23;38.75;101401.69;5096678;28;20062;-65
2023/06/12 00:50:52;;;;;;;9.07;5.85;;;;;;;23.08;39.05;101401.31;5096473;28;20389;-65
2023/06/12 00:53:18;;;;;;;9.98;5.80;;;;;;;23.03;39.67;101404.16;5096648;28;20055;-65
2023/06/12 00:55:44;;;;;;;9.15;6.00;;;;;;;22.96;39.56;101399.91;5096361;28;20036;-65
2023/06/12 00:58:11;;;;;;;12.82;6.10;;;;;;;22.85;39.92;101397.50;5096444;28;20522;-65
2023/06/12 01:00:38;;;;;;;12.13;6.10;;;;;;;22.95;40.05;101399.03;5096297;28;20077;-65
2023/06/12 01:03:10;;;;;;;11.90;6.07;;;;;;;22.88;40.14;101394.72;5096179;28;20055;-65
2023/06/12 01:05:42;;;;;;;9.88;6.18;;;;;;;22.79;40.16;101399.53;5096388;28;20394;-65
2023/06/12 01:08:37;;;;;;;9.02;5.85;;;;;;;22.77;40.27;101394.16;5096306;28;20082;-65
2023/06/12 01:11:04;;;;;;;11.73;5.90;;;;;;;22.68;40.48;101395.34;5096032;28;20028;-65
2023/06/12 01:13:30;;;;;;;9.13;6.03;;;;;;;22.59;40.79;101395.63;5095950;28;20393;-65
2023/06/12 01:15:56;;;;;;;9.75;6.28;;;;;;;22.52;40.71;101395.84;5095883;28;20063;-66
2023/06/12 01:18:21;;;;;;;9.43;6.50;;;;;;;22.58;41.00;101398.38;5077792;28;20055;-65
2023/06/12 01:20:55;;;;;;;7.82;5.88;;;;;;;22.50;41.22;101396.78;5096085;28;20029;-65
2023/06/12 01:23:32;;;;;;;9.93;6.80;;;;;;;22.51;40.72;101392.28;5095769;28;20469;-65
2023/06/12 01:26:26;;;;;;;9.75;6.43;;;;;;;22.42;40.97;101403.31;5095816;28;20500;-65
2023/06/12 01:29:22;;;;;;;9.75;5.82;;;;;;;22.60;40.98;101404.59;5103143;22;20058;-61
2023/06/12 01:31:59;;;;;;;9.48;6.28;;;;;;;22.47;41.35;101404.94;5075460;28;20029;-61
2023/06/12 01:34:59;;;;;;;8.65;6.35;;;;;;;22.48;41.21;101405.81;5075504;28;20384;-62
2023/06/12 01:37:43;;;;;;;9.95;6.13;;;;;;;22.54;40.97;101407.47;5075318;28;20025;-61
2023/06/12 01:40:12;;;;;;;8.38;6.30;;;;;;;22.41;41.03;101405.13;5074519;28;20035;-61
2023/06/12 01:42:38;;;;;;;8.80;6.45;;;;;;;22.36;41.83;101406.22;5074971;28;20107;-61
2023/06/12 01:45:05;;;;;;;8.10;6.25;;;;;;;22.21;41.85;101407.53;5075216;28;20385;-62
2023/06/12 01:47:30;;;;;;;13.73;6.72;;;;;;;22.32;41.32;101405.41;5075100;28;20469;-62
2023/06/12 01:49:56;;;;;;;9.05;6.32;;;;;;;22.37;41.48;101407.97;5075261;28;20039;-61
2023/06/12 01:52:21;;;;;;;11.88;6.35;;;;;;;22.25;41.60;101403.81;5073762;28;20025;-62
2023/06/12 01:54:50;;;;;;;10.75;5.85;;;;;;;22.19;42.15;101401.31;5074922;28;20037;-62
2023/06/12 01:57:19;;;;;;;12.00;6.60;;;;;;;22.05;42.01;101409.72;5075261;28;20041;-62
2023/06/12 01:59:45;;;;;;;11.05;6.50;;;;;;;22.05;42.34;101403.47;5074841;28;20115;-61
2023/06/12 02:02:11;;;;;;;9.90;6.47;;;;;;;21.98;42.83;101406.34;5074915;28;20052;-61
2023/06/12 02:04:37;;;;;;;12.73;6.88;;;;;;;21.91;42.54;101411.91;5074909;28;20389;-62
2023/06/12 02:07:04;;;;;;;9.88;6.15;;;;;;;21.98;42.68;101408.16;5074965;28;20032;-62
2023/06/12 02:09:29;;;;;;;10.43;6.80;;;;;;;22.03;42.56;101410.69;5074752;28;20020;-61
2023/06/12 02:11:55;;;;;;;13.30;6.75;;;;;;;22.07;42.63;101413.25;5074724;28;20112;-62
2023/06/12 02:14:20;;;;;;;11.27;6.45;;;;;;;21.99;42.14;101413.47;5074679;28;20035;-61
2023/06/12 02:16:45;;;;;;;11.23;6.43;;;;;;;21.99;43.08;101405.41;5074610;28;20100;-61
2023/06/12 02:19:12;;;;;;;11.02;6.70;;;;;;;21.93;42.94;101408.28;5072891;28;20063;-62
2023/06/12 02:21:38;;;;;;;8.90;6.50;;;;;;;21.86;43.12;101408.47;5074673;28;20131;-62
2023/06/12 02:24:04;;;;;;;9.55;6.55;;;;;;;21.78;44.40;101407.78;5074381;28;20452;-62
2023/06/12 02:26:30;;;;;;;11.65;6.57;;;;;;;21.82;43.83;101404.09;5074735;28;20036;-62
2023/06/12 02:29:14;;;;;;;11.98;6.85;;;;;;;21.81;43.35;101403.22;5074255;28;20467;-62
2023/06/12 02:31:40;;;;;;;9.50;6.47;;;;;;;21.71;44.30;101397.22;5074489;28;20063;-62
2023/06/12 02:34:05;;;;;;;12.10;6.53;;;;;;;21.61;44.66;101402.84;5074283;28;20060;-61
2023/06/12 02:36:33;;;;;;;8.80;6.75;;;;;;;21.56;44.84;101405.66;5074237;28;20016;-62
2023/06/12 02:38:59;;;;;;;9.75;6.15;;;;;;;21.52;45.16;101403.97;5073980;28;20058;-62
2023/06/12 02:41:25;;;;;;;10.57;6.82;;;;;;;21.47;44.63;101392.47;5074111;28;20052;-62
2023/06/12 02:43:51;;;;;;;10.57;6.90;;;;;;;21.40;44.77;101397.09;5074326;28;20032;-62
2023/06/12 02:46:16;;;;;;;8.77;6.45;;;;;;;21.34;45.40;101396.38;5073967;28;20102;-62
2023/06/12 02:48:42;;;;;;;9.77;6.65;;;;;;;21.33;45.24;101394.63;5073914;28;20431;-61
2023/06/12 02:51:07;;;;;;;9.55;6.60;;;;;;;21.24;45.52;101398.38;5073894;28;20036;-62
2023/06/12 02:53:34;;;;;;;13.95;6.85;;;;;;;21.17;45.68;101389.59;5073739;28;20072;-62
2023/06/12 02:56:00;;;;;;;10.27;6.72;;;;;;;21.24;45.92;101392.97;5074088;28;20021;-62
2023/06/12 02:58:25;;;;;;;10.82;6.78;;;;;;;21.24;45.66;101396.59;5073585;28;20389;-62
2023/06/12 03:00:51;;;;;;;8.55;6.25;;;;;;;21.18;45.93;101396.72;5073664;28;20043;-62
2023/06/12 03:03:20;;;;;;;8.48;6.63;;;;;;;21.06;47.29;101393.44;5073552;28;20042;-62
2023/06/12 03:05:46;;;;;;;12.63;7.00;;;;;;;21.08;46.97;101403.25;5073252;28;20031;-62
2023/06/12 03:08:13;;;;;;;11.95;7.00;;;;;;;20.98;47.16;101397.22;5073686;28;20036;-62
2023/06/12 03:10:39;;;;;;;10.50;6.78;;;;;;;20.94;47.21;101397.28;5073733;28;20108;-62
2023/06/12 03:13:05;;;;;;;11.38;6.93;;;;;;;20.88;47.65;101395.66;5073387;28;20063;-62
2023/06/12 03:15:30;;;;;;;12.13;6.75;;;;;;;20.74;48.78;101390.59;5073670;28;20024;-61
2023/06/12 03:17:55;;;;;;;11.38;6.90;;;;;;;20.79;47.64;101394.97;5073233;28;20036;-62
2023/06/12 03:20:24;;;;;;;10.43;6.80;;;;;;;20.71;47.60;101401.41;5073381;28;20060;-62
2023/06/12 03:22:50;;;;;;;11.63;7.28;;;;;;;20.65;47.15;101393.50;5073170;28;20036;-62
2023/06/12 03:25:18;;;;;;;11.88;6.72;;;;;;;20.63;47.68;101395.31;5072047;28;20031;-61
2023/06/12 03:27:45;;;;;;;11.82;7.28;;;;;;;20.62;47.27;101396.22;5072975;28;20105;-62
2023/06/12 03:30:11;;;;;;;12.13;7.35;;;;;;;20.69;47.49;101407.75;5073626;28;20028;-62
2023/06/12 03:32:37;;;;;;;11.95;7.30;;;;;;;20.59;47.78;101403.47;5073129;28;20024;-62
2023/06/12 03:35:03;;;;;;;13.90;7.25;;;;;;;20.61;47.45;101402.53;5072080;28;20038;-62
2023/06/12 03:37:28;;;;;;;13.38;7.38;;;;;;;20.59;47.16;101404.34;5073354;28;20024;-62
2023/06/12 03:39:54;;;;;;;13.90;7.35;;;;;;;20.67;46.80;101405.06;5073012;28;20481;-62
2023/06/12 03:42:20;;;;;;;13.35;7.60;;;;;;;20.64;46.81;101407.84;5073168;28;20047;-62
2023/06/12 03:44:45;;;;;;;18.23;7.53;;;;;;;20.68;46.83;101414.88;5073064;28;20028;-62
2023/06/12 03:47:11;;;;;;;13.30;7.32;;;;;;;20.72;46.38;101410.34;5073172;28;20024;-62
2023/06/12 03:49:39;;;;;;;11.80;7.88;;;;;;;20.73;46.66;101423.75;5073013;28;20489;-62
2023/06/12 03:52:04;;;;;;;11.52;7.50;;;;;;;20.69;47.04;101419.38;5073086;28;20078;-62
2023/06/12 03:54:30;;;;;;;15.05;8.00;;;;;;;20.70;46.98;101420.25;5072886;28;20024;-62
2023/06/12 03:56:56;;;;;;;13.23;7.60;;;;;;;20.78;46.61;101418.28;5072911;28;20034;-62
2023/06/12 03:59:21;;;;;;;10.15;7.72;;;;;;;20.71;46.87;101427.38;5073074;28;20107;-62
2023/06/12 04:01:48;;;;;;;14.57;7.78;;;;;;;20.83;46.81;101424.41;5072796;28;20029;-62
2023/06/12 04:04:15;;;;;;;13.52;8.18;;;;;;;20.80;46.86;101424.47;5073170;28;20032;-62
2023/06/12 04:06:41;;;;;;;10.15;7.80;;;;;;;20.85;47.05;101422.56;5073067;28;20017;-62
2023/06/12 04:09:08;;;;;;;11.02;7.63;;;;;;;20.86;47.21;101435.09;5072676;28;20047;-62
2023/06/12 04:11:34;;;;;;;10.73;7.80;;;;;;;20.87;47.40;101431.50;5072569;28;20025;-62
2023/06/12 04:14:01;;;;;;;15.23;7.90;;;;;;;20.79;47.49;101433.47;5073056;28;20157;-61
2023/06/12 04:16:27;;;;;;;17.33;8.15;;;;;;;20.75;47.79;101442.50;5074224;28;20074;-61
2023/06/12 04:18:53;;;;;;;10.68;7.72;;;;;;;20.73;47.80;101447.91;5076752;28;20469;-61
2023/06/12 04:21:20;;;;;;;11.43;7.60;;;;;;;20.76;47.81;101439.78;5075503;28;20173;-62
2023/06/12 04:23:47;;;;;;;11.88;7.82;;;;;;;20.79;47.60;101435.28;5076876;28;20033;-62
2023/06/12 04:26:14;;;;;;;12.30;7.47;;;;;;;20.82;47.70;101436.09;5076621;28;20056;-62
2023/06/12 04:28:41;;;;;;;10.68;7.60;;;;;;;20.86;47.99;101437.78;5076488;28;20052;-62
2023/06/12 04:31:07;;;;;;;10.48;8.05;;;;;;;20.83;47.54;101437.84;5076589;28;20024;-61
2023/06/12 04:33:35;;;;;;;12.38;7.82;;;;;;;20.91;47.80;101445.75;5076799;28;20377;-62
2023/06/12 04:36:02;;;;;;;12.25;8.15;;;;;;;20.90;47.96;101438.63;5076299;28;20035;-62
2023/06/12 04:38:31;;;;;;;12.10;7.85;;;;;;;20.86;47.84;101444.97;5076514;28;20111;-61
2023/06/12 04:40:59;;;;;;;13.25;8.40;;;;;;;20.90;47.76;101438.63;5076329;28;20477;-62
2023/06/12 04:43:25;;;;;;;17.55;9.73;;;;;;;20.84;48.08;101442.31;5076078;28;20029;-61
2023/06/12 04:45:55;;;;;;;14.45;8.32;;;;;;;20.87;47.64;101436.00;5076177;28;20028;-62
2023/06/12 04:48:21;;;;;;;18.90;8.50;;;;;;;20.82;48.33;101435.22;5076491;28;20078;-61
2023/06/12 04:50:53;;;;;;;11.73;8.40;;;;;;;20.82;47.89;101430.72;5076149;28;20028;-62
2023/06/12 04:53:29;;;;;;;16.85;10.05;;;;;;;20.84;47.66;101439.63;5076131;28;20067;-61
2023/06/12 04:55:56;;;;;;;13.93;9.48;;;;;;;20.93;47.86;101433.16;5076444;28;20040;-62
2023/06/12 04:58:21;;;;;;;12.98;9.50;;;;;;;20.97;47.74;101437.53;5076260;28;20373;-61
2023/06/12 05:00:47;;;;;;;16.55;11.15;;;;;;;21.02;47.28;101443.69;5076022;28;20024;-61
2023/06/12 05:03:16;;;;;;;18.38;11.40;;;;;;;21.10;47.20;101443.50;5076200;28;20028;-62
2023/06/12 05:05:43;;;;;;;13.23;10.68;;;;;;;21.12;47.63;101447.06;5076164;28;20070;-61
2023/06/12 05:08:08;;;;;;;20.13;10.80;;;;;;;21.23;47.24;101447.66;5075946;28;20032;-61
2023/06/12 05:10:34;;;;;;;13.05;10.02;;;;;;;21.35;47.09;101442.03;5074624;28;20400;-62
2023/06/12 05:12:59;;;;;;;14.27;11.20;;;;;;;21.47;46.72;101441.75;5075698;28;20039;-62
2023/06/12 05:15:25;;;;;;;14.07;10.10;;;;;;;21.59;46.68;101445.94;5075715;28;20024;-62
2023/06/12 05:17:50;;;;;;;19.50;10.45;;;;;;;21.64;46.69;101446.69;5075960;28;20033;-62
2023/06/12 05:20:16;;;;;;;12.90;9.52;;;;;;;21.74;46.58;101452.72;5075674;28;20056;-61
2023/06/12 05:22:41;;;;;;;14.52;9.27;;;;;;;21.85;46.50;101450.66;5075549;28;20080;-61
2023/06/12 05:25:07;;;;;;;13.57;9.80;;;;;;;21.90;46.67;101454.09;5075598;28;20055;-62
2023/06/12 05:27:33;;;;;;;13.70;10.40;;;;;;;22.05;46.27;101455.47;5075006;28;20024;-62
2023/06/12 05:29:59;;;;;;;13.80;9.43;;;;;;;22.21;45.77;101453.28;5073260;28;20424;-62
2023/06/12 05:32:25;;;;;;;15.45;9.80;;;;;;;22.37;45.77;101448.38;5073065;28;20039;-62
2023/06/12 05:34:51;;;;;;;16.05;9.82;;;;;;;22.46;44.81;101440.00;5074287;28;20024;-61
2023/06/12 05:37:16;;;;;;;16.85;9.30;;;;;;;22.57;44.24;101445.06;5074106;28;20074;-62
2023/06/12 05:39:41;;;;;;;13.90;9.70;;;;;;;22.69;43.42;101444.72;5073956;28;20047;-62
2023/06/12 05:42:07;;;;;;;13.13;9.27;;;;;;;22.83;43.93;101441.63;5074050;28;20032;-62
2023/06/12 05:44:32;;;;;;;15.40;9.45;;;;;;;22.92;43.42;101441.38;5072844;28;20028;-61
2023/06/12 05:46:58;;;;;;;10.80;8.85;;;;;;;23.04;44.05;101437.38;5072830;28;20082;-61
2023/06/12 05:49:23;;;;;;;17.42;9.43;;;;;;;23.13;42.74;101443.38;5074022;28;20091;-61
2023/06/12 05:51:49;;;;;;;19.00;8.85;;;;;;;23.36;42.99;101441.75;5074342;28;20031;-62
2023/06/12 05:54:14;;;;;;;15.52;9.50;;;;;;;23.43;41.39;101443.31;5073915;28;20027;-62
2023/06/12 05:56:40;;;;;;;14.10;8.52;;;;;;;23.53;41.26;101441.19;5072757;28;20032;-62
2023/06/12 05:59:05;;;;;;;12.25;9.20;;;;;;;23.63;41.33;101439.94;5074013;28;20116;-61
2023/06/12 06:01:31;;;;;;;18.00;9.75;;;;;;;23.74;40.82;101444.06;5073882;28;20025;-62
2023/06/12 06:04:00;;;;;;;15.30;9.10;;;;;;;23.90;41.06;101439.03;5073738;28;20047;-62
2023/06/12 06:06:25;;;;;;;14.35;7.70;;;;;;;24.05;41.21;101436.72;5073782;28;20389;-62
2023/06/12 06:08:51;;;;;;;12.02;9.32;;;;;;;23.97;40.50;101439.69;5073960;28;20079;-62
2023/06/12 06:11:16;;;;;;;14.50;8.82;;;;;;;23.99;40.49;101437.81;5073763;28;20615;-62
2023/06/12 06:13:43;;;;;;;11.35;8.18;;;;;;;24.11;40.75;101442.78;5073350;28;20115;-62
2023/06/12 06:16:10;;;;;;;14.05;8.10;;;;;;;24.18;40.64;101441.63;5072744;28;20023;-61
2023/06/12 06:18:37;;;;;;;16.05;7.88;;;;;;;24.31;40.53;101438.47;5073540;28;20029;-62
2023/06/12 06:21:02;;;;;;;16.55;7.85;;;;;;;24.56;39.63;101444.75;5073605;28;20036;-62
2023/06/12 06:23:28;;;;;;;12.75;8.07;;;;;;;24.63;39.74;101448.13;5073777;28;20082;-61
2023/06/12 06:25:54;;;;;;;12.15;7.65;;;;;;;24.81;39.20;101443.81;5072229;28;20393;-62
2023/06/12 06:28:20;;;;;;;13.70;7.60;;;;;;;24.91;38.70;101448.78;5033318;28;1148269;-62
2023/06/12 06:30:45;;;;;;;11.15;7.75;;;;;;;25.06;38.09;101444.59;5074655;28;20090;-62
2023/06/12 06:33:10;;;;;;;17.73;8.73;;;;;;;25.17;38.21;101450.47;5074681;28;20500;-61
2023/06/12 06:35:36;;;;;;;12.02;7.75;;;;;;;25.26;38.23;101448.34;5074570;28;20028;-62
2023/06/12 06:38:01;;;;;;;14.93;7.55;;;;;;;25.42;37.76;101446.78;5072549;28;20027;-62
2023/06/12 06:40:27;;;;;;;12.48;7.80;;;;;;;25.59;37.51;101443.38;5073812;28;20131;-62
2023/06/12 06:42:55;;;;;;;12.52;7.35;;;;;;;25.62;37.58;101449.53;5073806;28;20393;-62
2023/06/12 06:45:20;;;;;;;13.50;7.35;;;;;;;25.70;37.40;101447.38;5074057;28;20111;-61
2023/06/12 06:47:46;;;;;;;11.02;7.60;;;;;;;25.85;36.79;101453.13;5073992;28;20078;-62
2023/06/12 06:50:11;;;;;;;11.80;7.07;;;;;;;25.98;36.84;101446.22;5074079;28;20035;-62
2023/06/12 06:52:37;;;;;;;14.70;7.80;;;;;;;26.06;35.38;101452.19;5073909;28;20388;-62
2023/06/12 06:55:02;;;;;;;14.20;7.57;;;;;;;26.33;35.34;101447.34;5073333;28;20386;-62
2023/06/12 06:57:28;;;;;;;14.38;7.50;;;;;;;26.56;35.11;101445.47;5075099;28;20029;-61
2023/06/12 06:59:55;;;;;;;13.27;6.82;;;;;;;26.76;35.25;101449.94;5073979;28;20032;-61
2023/06/12 07:02:21;;;;;;;7.97;6.55;;;;;;;26.99;34.83;101438.00;5074054;28;20039;-61
2023/06/12 07:04:48;;;;;;;12.38;6.30;;;;;;;27.15;35.46;101449.88;5073802;28;20492;-61
2023/06/12 07:07:14;;;;;;;10.90;6.55;;;;;;;27.26;34.22;101447.53;5073491;28;20043;-62
2023/06/12 07:09:39;;;;;;;10.75;6.30;;;;;;;27.30;33.32;101442.84;5073775;28;20028;-62
2023/06/12 07:12:05;;;;;;;12.77;6.47;;;;;;;27.41;33.53;101443.19;5073315;28;20051;-62
2023/06/12 07:14:31;;;;;;;12.73;6.40;;;;;;;27.57;33.09;101443.28;5073534;28;20032;-61
2023/06/12 07:16:56;;;;;;;9.02;5.90;;;;;;;27.75;33.58;101436.94;5072180;28;20108;-62
2023/06/12 07:19:21;;;;;;;10.02;5.82;;;;;;;27.95;33.79;101433.19;5073461;28;20103;-62
2023/06/12 07:21:48;;;;;;;11.43;6.97;;;;;;;28.10;33.01;101437.81;5073423;28;20358;-62
2023/06/12 07:24:17;;;;;;;8.93;6.40;;;;;;;28.17;32.04;101433.78;5073357;28;20032;-61
2023/06/12 07:26:42;;;;;;;9.88;6.32;;;;;;;28.25;32.49;101440.66;5073525;28;20090;-61
2023/06/12 07:29:07;;;;;;;8.07;5.95;;;;;;;28.20;32.42;101436.34;5073742;28;20577;-61
2023/06/12 07:31:33;;;;;;;11.05;6.10;;;;;;;28.34;32.12;101432.00;5073292;28;20043;-62
2023/06/12 07:33:58;;;;;;;9.38;5.75;;;;;;;28.55;32.28;101433.59;5073131;28;20538;-66
2023/06/12 07:36:23;;;;;;;14.88;6.07;;;;;;;28.59;31.44;101427.00;5073386;28;20108;-65
2023/06/12 07:38:49;;;;;;;13.25;5.97;;;;;;;28.83;31.59;101430.22;5073421;28;20518;-67
2023/06/12 07:41:15;;;;;;;8.57;5.72;;;;;;;29.03;31.42;101431.81;5073840;28;20040;-67
2023/06/12 07:43:40;;;;;;;10.88;6.22;;;;;;;29.22;30.80;101418.03;5073353;28;20393;-67
2023/06/12 07:46:05;;;;;;;10.23;6.05;;;;;;;29.33;30.29;101429.16;5082318;28;20028;-66
2023/06/12 07:51:00;;;;;;;7.70;5.47;;;;;;;29.88;30.23;101423.16;5049781;28;20152;-65
2023/06/12 07:53:26;;;;;;;10.88;5.70;;;;;;;30.02;29.11;101427.81;5052572;28;20040;-63
2023/06/12 07:55:52;;;;;;;10.65;6.35;;;;;;;30.09;28.47;101420.09;5052552;28;20028;-63
2023/06/12 07:58:17;;;;;;;10.60;5.88;;;;;;;30.08;28.69;101424.69;5052933;28;20489;-63
2023/06/12 08:00:43;;;;;;;9.70;5.50;;;;;;;30.20;28.47;101416.75;5052614;28;20037;-64
2023/06/12 08:03:08;;;;;;;9.52;5.70;;;;;;;30.22;28.65;101417.53;5052647;28;20035;-63
2023/06/12 08:05:35;;;;;;;12.48;5.68;;;;;;;30.27;28.96;101423.56;5052819;28;20112;-64
2023/06/12 08:08:00;;;;;;;12.38;5.63;;;;;;;30.34;30.07;101420.34;5052536;28;20052;-63
2023/06/12 08:10:26;;;;;;;12.45;5.50;;;;;;;30.59;29.17;101427.88;5052486;28;20390;-64
2023/06/12 08:12:52;;;;;;;9.25;5.65;;;;;;;30.68;28.06;101424.53;5052368;28;20075;-64
2023/06/12 08:15:17;;;;;;;9.77;5.68;;;;;;;30.86;27.91;101424.34;5052828;28;20083;-63
2023/06/12 08:17:43;;;;;;;10.25;5.47;;;;;;;30.92;28.11;101422.13;5034539;28;20441;-64
2023/06/12 08:20:10;;;;;;;10.45;5.70;;;;;;;30.85;27.24;101423.47;5052425;28;20120;-64
2023/06/12 08:22:38;;;;;;;10.55;5.28;;;;;;;31.06;27.49;101425.78;5052275;28;20489;-63
2023/06/12 08:25:05;;;;;;;12.27;5.85;;;;;;;31.07;27.88;101422.94;5052751;28;20111;-63
2023/06/12 08:27:31;;;;;;;11.48;6.18;;;;;;;31.02;27.56;101418.78;5052739;28;20033;-63
2023/06/12 08:29:56;;;;;;;10.85;5.90;;;;;;;31.18;27.80;101420.38;5052360;28;20107;-63
2023/06/12 08:32:22;;;;;;;11.02;5.63;;;;;;;31.07;28.28;101422.06;5052691;28;20079;-63
2023/06/12 08:34:47;;;;;;;10.10;5.60;;;;;;;31.37;27.19;101417.31;5052343;28;20035;-63
2023/06/12 08:37:13;;;;;;;16.52;6.00;;;;;;;31.46;26.70;101421.28;5052299;28;20040;-63
2023/06/12 08:39:38;;;;;;;11.00;5.90;;;;;;;31.46;26.36;101423.13;5052385;28;20021;-63
2023/06/12 08:42:17;;;;;;;9.70;5.65;;;;;;;31.59;26.87;101424.06;5052125;28;20061;-63
2023/06/12 08:44:46;;;;;;;17.38;6.38;;;;;;;31.73;26.35;101418.50;5052350;28;20029;-63
2023/06/12 08:47:16;;;;;;;11.60;6.20;;;;;;;31.64;26.83;101420.00;5034423;28;20057;-63
2023/06/12 08:49:42;;;;;;;11.85;5.35;;;;;;;32.05;26.46;101416.28;5044880;28;20050;-63
2023/06/12 08:52:10;;;;;;;8.27;5.32;;;;;;;32.20;26.12;101411.59;5032364;28;20072;-63
2023/06/12 08:54:40;;;;;;;7.22;5.15;;;;;;;32.37;25.28;101416.72;5032371;28;20029;-64
2023/06/12 08:57:07;;;;;;;9.18;5.03;;;;;;;32.54;24.74;101412.78;5032534;28;20104;-64
2023/06/12 08:59:32;;;;;;;8.40;5.20;;;;;;;32.52;25.56;101408.44;5032059;28;20017;-63
2023/06/12 09:01:59;;;;;;;8.73;5.47;;;;;;;32.47;24.89;101407.91;5032887;28;20029;-63
2023/06/12 09:04:59;;;;;;;10.38;5.30;;;;;;;32.68;25.50;101400.88;5035808;28;20032;-63
2023/06/12 09:07:25;;;;;;;8.25;5.40;;;;;;;32.56;25.12;101409.97;5035674;28;20065;-64
2023/06/12 09:09:51;;;;;;;9.90;5.20;;;;;;;32.75;24.85;101398.53;5035656;28;20036;-63
2023/06/12 09:12:16;;;;;;;11.45;5.55;;;;;;;32.81;25.26;101389.88;5035525;28;20034;-64
2023/06/12 09:14:44;;;;;;;7.47;5.25;;;;;;;32.97;24.87;101395.97;5035644;28;20029;-64
2023/06/12 09:17:10;;;;;;;8.45;5.70;;;;;;;33.17;25.08;101391.75;5035829;28;20152;-64
2023/06/12 09:19:46;;;;;;;12.50;5.35;;;;;;;33.47;23.93;101391.28;5034275;28;20104;-64
2023/06/12 09:22:12;;;;;;;7.55;5.10;;;;;;;33.57;23.82;101389.56;5035429;28;20084;-64
2023/06/12 09:24:38;;;;;;;9.45;5.10;;;;;;;33.65;24.24;101389.00;5035412;28;20112;-64
2023/06/12 09:27:04;;;;;;;9.75;5.22;;;;;;;33.87;24.05;101391.78;5035504;28;20062;-64
2023/06/12 09:29:30;;;;;;;8.93;5.32;;;;;;;33.97;24.54;101386.50;5035711;28;20391;-64
2023/06/12 09:31:58;;;;;;;9.00;4.95;;;;;;;34.16;22.89;101385.03;5035233;28;20030;-66
2023/06/12 09:34:24;;;;;;;8.40;5.20;;;;;;;34.24;23.10;101383.41;5035284;28;20160;-64
2023/06/12 09:36:50;;;;;;;7.82;4.82;;;;;;;34.24;23.39;101380.66;5035553;28;20109;-71
2023/06/12 09:39:22;;;;;;;11.98;5.38;;;;;;;34.26;23.77;101384.19;5035226;28;20029;-68
2023/06/12 09:41:49;;;;;;;8.70;4.88;;;;;;;34.12;23.97;101377.03;5035368;28;20029;-64
2023/06/12 09:44:20;;;;;;;7.85;4.97;;;;;;;34.37;23.24;101381.41;5035032;28;20022;-64
2023/06/12 09:46:46;;;;;;;9.18;4.93;;;;;;;34.43;23.02;101374.53;5035227;28;20033;-64
2023/06/12 09:49:13;;;;;;;9.45;5.20;;;;;;;34.31;22.76;101384.66;5037662;28;20452;-64
2023/06/12 09:51:43;;;;;;;6.78;5.35;;;;;;;34.00;22.04;101390.84;5055247;28;20050;-64
2023/06/12 09:54:11;;;;;;;8.63;4.85;;;;;;;33.75;22.78;101384.56;5036847;28;20065;-64
2023/06/12 09:56:37;;;;;;;11.23;4.97;;;;;;;33.75;23.28;101387.28;5054849;28;20036;-64
2023/06/12 09:59:05;;;;;;;8.65;4.85;;;;;;;33.84;23.08;101388.44;5054996;28;20025;-64
2023/06/12 10:01:37;;;;;;;9.60;5.03;;;;;;;33.71;23.23;101385.78;5054789;28;20078;-64
2023/06/12 10:04:04;;;;;;;8.82;5.30;;;;;;;33.69;23.42;101387.75;5054954;28;20033;-64
2023/06/12 10:06:32;;;;;;;7.53;5.00;;;;;;;33.96;22.71;101390.25;5054723;28;20033;-63
2023/06/12 10:08:58;;;;;;;8.30;5.15;;;;;;;34.14;22.98;101383.28;5054494;28;20111;-64
2023/06/12 10:11:25;;;;;;;7.28;4.70;;;;;;;34.60;22.98;101375.94;5054471;28;20079;-63
2023/06/12 10:13:53;;;;;;;10.30;5.05;;;;;;;34.49;22.52;101387.81;5053323;28;20104;-63
2023/06/12 10:16:18;;;;;;;7.20;4.70;;;;;;;34.78;21.22;101368.09;5036998;28;20033;-64
2023/06/12 10:18:45;;;;;;;10.30;4.90;;;;;;;34.56;21.36;101389.06;5054175;28;20544;-63
2023/06/12 10:21:11;;;;;;;9.48;5.10;;;;;;;34.55;20.94;101370.84;5054152;28;20401;-63
2023/06/12 10:23:36;;;;;;;8.68;5.05;;;;;;;34.68;21.66;101367.94;5036630;28;20097;-63
2023/06/12 10:26:03;;;;;;;8.77;4.88;;;;;;;34.52;21.77;101361.97;5054540;28;20477;-64
2023/06/12 10:28:29;;;;;;;6.95;4.65;;;;;;;34.41;21.68;101362.84;5054396;28;20025;-63
2023/06/12 10:31:16;;;;;;;7.45;5.20;;;;;;;34.26;22.71;101367.72;5054410;28;20501;-63
2023/06/12 10:34:00;;;;;;;12.05;5.20;;;;;;;34.41;22.14;101373.81;5054032;28;20029;-63
2023/06/12 10:36:35;;;;;;;6.97;4.70;;;;;;;34.55;21.96;101361.72;5054039;28;20074;-63
2023/06/12 10:39:05;;;;;;;7.80;5.43;;;;;;;34.34;22.10;101367.06;5053704;28;20466;-63
2023/06/12 10:41:34;;;;;;;8.30;5.00;;;;;;;34.34;22.16;101362.44;5054146;28;20059;-63
2023/06/12 10:43:59;;;;;;;9.35;5.20;;;;;;;34.16;22.40;101358.47;5053797;28;20033;-63
2023/06/12 10:46:43;;;;;;;6.25;5.03;;;;;;;34.22;22.40;101354.34;5053822;28;20485;-63
2023/06/12 10:49:11;;;;;;;13.00;5.30;;;;;;;34.31;23.14;101357.22;5053582;28;20044;-63
2023/06/12 10:51:42;;;;;;;10.82;5.30;;;;;;;34.22;22.72;101351.59;5053603;28;20473;-63
2023/06/12 10:54:14;;;;;;;7.63;5.32;;;;;;;34.12;22.61;101352.34;5053630;28;20044;-63
2023/06/12 10:56:57;;;;;;;11.20;5.45;;;;;;;34.03;22.58;101339.38;5053703;28;20478;-64
2023/06/12 10:59:35;;;;;;;9.15;5.38;;;;;;;34.20;22.14;101353.59;5053757;28;20048;-63
2023/06/12 11:02:02;;;;;;;6.38;4.57;;;;;;;34.36;23.38;101344.00;5053672;28;20035;-64
2023/06/12 11:04:27;;;;;;;8.88;4.88;;;;;;;34.74;22.16;101350.13;5053287;28;20523;-63
2023/06/12 11:06:52;;;;;;;8.55;5.43;;;;;;;35.05;20.96;101346.56;5053423;28;20029;-63
2023/06/12 11:09:18;;;;;;;8.88;5.35;;;;;;;35.15;21.41;101343.03;5053501;28;20394;-63
2023/06/12 11:11:50;;;;;;;7.53;5.43;;;;;;;35.32;21.33;101343.31;5053272;28;20126;-63
2023/06/12 11:14:16;;;;;;;8.65;5.47;;;;;;;35.55;21.02;101349.63;5053069;28;20025;-63
2023/06/12 11:16:42;;;;;;;9.75;5.47;;;;;;;35.87;21.38;101338.53;5053234;28;20029;-64
2023/06/12 11:19:07;;;;;;;12.13;4.95;;;;;;;35.94;20.70;101349.00;5053405;28;20021;-64
2023/06/12 11:21:37;;;;;;;9.32;5.30;;;;;;;36.30;20.56;101345.75;5053520;28;20382;-64
2023/06/12 11:24:06;;;;;;;11.63;5.70;;;;;;;36.04;20.10;101355.47;5053123;28;20036;-64